sensor_id;sensor_type;location;lat;lon;timestamp;pressure;altitude;pressure_sealevel;temperature;humidity
48077;BME280;33854;57.708;12.008;2023-02-17T00:01:26;93573.44;;;4.31;100.00
48077;BME280;33854;57.708;12.008;2023-02-17T00:03:52;93581.34;;;4.36;100.00
48077;BME280;33854;57.708;12.008;2023-02-17T00:06:21;93574.22;;;4.32;100.00
48077;BME280;33854;57.708;12.008;2023-02-17T00:08:47;93579.59;;;4.30;100.00
48077;BME280;33854;57.708;12.008;2023-02-17T00:11:13;93583.16;;;4.36;100.00
48077;BME280;33854;57.708;12.008;2023-02-17T00:13:39;93581.34;;;4.36;100.00
48077;BME280;33854;57.708;12.008;2023-02-17T00:16:09;93564.31;;;4.35;100.00
48077;BME280;33854;57.708;12.008;2023-02-17T00:18:36;93544.91;;;4.26;100.00
48077;BME280;33854;57.708;12.008;2023-02-17T00:21:10;93546.44;;;4.34;100.00
48077;BME280;33854;57.708;12.008;2023-02-17T00:23:36;93534.75;;;4.31;100.00
48077;BME280;33854;57.708;12.008;2023-02-17T00:26:04;93551.97;;;4.37;100.00
48077;BME280;33854;57.708;12.008;2023-02-17T00:28:29;93541.66;;;4.37;100.00
48077;BME280;33854;57.708;12.008;2023-02-17T00:30:55;93543.25;;;4.38;100.00
48077;BME280;33854;57.708;12.008;2023-02-17T00:33:20;93539.09;;;4.37;100.00
48077;BME280;33854;57.708;12.008;2023-02-17T00:35:46;93521.44;;;4.34;100.00
48077;BME280;33854;57.708;12.008;2023-02-17T00:38:11;93516.84;;;4.36;100.00
48077;BME280;33854;57.708;12.008;2023-02-17T00:40:36;93522.03;;;4.36;100.00
48077;BME280;33854;57.708;12.008;2023-02-17T00:43:03;93519.44;;;4.36;100.00
48077;BME280;33854;57.708;12.008;2023-02-17T00:45:28;93521.81;;;4.38;100.00
48077;BME280;33854;57.708;12.008;2023-02-17T00:47:54;93514.72;;;4.33;100.00
48077;BME280;33854;57.708;12.008;2023-02-17T00:50:19;93519.66;;;4.35;100.00
48077;BME280;33854;57.708;12.008;2023-02-17T00:52:45;93510.72;;;4.37;100.00
48077;BME280;33854;57.708;12.008;2023-02-17T00:55:10;93509.13;;;4.36;100.00
48077;BME280;33854;57.708;12.008;2023-02-17T00:57:35;93508.34;;;4.36;100.00
48077;BME280;33854;57.708;12.008;2023-02-17T01:00:02;93485.19;;;4.29;100.00
48077;BME280;33854;57.708;12.008;2023-02-17T01:02:29;93496.44;;;4.35;100.00
48077;BME280;33854;57.708;12.008;2023-02-17T01:04:54;93500.41;;;4.37;100.00
48077;BME280;33854;57.708;12.008;2023-02-17T01:07:20;93499.41;;;4.38;100.00
48077;BME280;33854;57.708;12.008;2023-02-17T01:09:45;93499.19;;;4.40;100.00
48077;BME280;33854;57.708;12.008;2023-02-17T01:12:11;93485.50;;;4.39;100.00
48077;BME280;33854;57.708;12.008;2023-02-17T01:14:37;93484.72;;;4.39;100.00
48077;BME280;33854;57.708;12.008;2023-02-17T01:17:02;93488.88;;;4.40;100.00
48077;BME280;33854;57.708;12.008;2023-02-17T01:19:27;93493.03;;;4.41;100.00
48077;BME280;33854;57.708;12.008;2023-02-17T01:21:53;93486.28;;;4.40;100.00
48077;BME280;33854;57.708;12.008;2023-02-17T01:24:18;93485.72;;;4.38;100.00
48077;BME280;33854;57.708;12.008;2023-02-17T01:26:44;93484.94;;;4.31;100.00
48077;BME280;33854;57.708;12.008;2023-02-17T01:29:09;93485.75;;;4.31;100.00
48077;BME280;33854;57.708;12.008;2023-02-17T01:31:35;93497.50;;;4.27;100.00
48077;BME280;33854;57.708;12.008;2023-02-17T01:34:02;93477.84;;;4.26;100.00
48077;BME280;33854;57.708;12.008;2023-02-17T01:36:28;93475.91;;;4.22;100.00
48077;BME280;33854;57.708;12.008;2023-02-17T01:38:54;93492.56;;;4.19;100.00
48077;BME280;33854;57.708;12.008;2023-02-17T01:41:22;93500.13;;;4.14;100.00
48077;BME280;33854;57.708;12.008;2023-02-17T01:46:40;93509.22;;;4.17;100.00
48077;BME280;33854;57.708;12.008;2023-02-17T01:51:50;93533.06;;;4.12;100.00
48077;BME280;33854;57.708;12.008;2023-02-17T01:54:25;93528.91;;;4.11;100.00
48077;BME280;33854;57.708;12.008;2023-02-17T01:56:51;93514.44;;;4.10;100.00
48077;BME280;33854;57.708;12.008;2023-02-17T01:59:20;93517.44;;;4.07;100.00
48077;BME280;33854;57.708;12.008;2023-02-17T02:01:49;93519.22;;;4.07;100.00
48077;BME280;33854;57.708;12.008;2023-02-17T02:04:18;93524.56;;;4.05;100.00
48077;BME280;33854;57.708;12.008;2023-02-17T02:06:44;93528.16;;;4.04;100.00
48077;BME280;33854;57.708;12.008;2023-02-17T02:09:18;93543.63;;;4.04;100.00
48077;BME280;33854;57.708;12.008;2023-02-17T02:11:47;93536.47;;;3.99;100.00
48077;BME280;33854;57.708;12.008;2023-02-17T02:14:13;93542.66;;;3.98;100.00
48077;BME280;33854;57.708;12.008;2023-02-17T02:38:45;93699.69;;;3.74;100.00
48077;BME280;33854;57.708;12.008;2023-02-17T02:41:16;93687.00;;;3.66;100.00
48077;BME280;33854;57.708;12.008;2023-02-17T02:43:43;93660.25;;;3.73;100.00
48077;BME280;33854;57.708;12.008;2023-02-17T02:46:09;93667.78;;;3.75;100.00
48077;BME280;33854;57.708;12.008;2023-02-17T02:48:35;93659.25;;;3.74;100.00
48077;BME280;33854;57.708;12.008;2023-02-17T03:07:11;93676.09;;;3.77;100.00
48077;BME280;33854;57.708;12.008;2023-02-17T03:09:49;93782.34;;;3.79;100.00
48077;BME280;33854;57.708;12.008;2023-02-17T03:12:16;93781.75;;;3.77;100.00
48077;BME280;33854;57.708;12.008;2023-02-17T03:14:42;93786.09;;;3.76;100.00
48077;BME280;33854;57.708;12.008;2023-02-17T03:17:08;93779.00;;;3.78;100.00
48077;BME280;33854;57.708;12.008;2023-02-17T03:19:33;93783.75;;;3.75;100.00
48077;BME280;33854;57.708;12.008;2023-02-17T03:24:43;93784.53;;;3.82;100.00
48077;BME280;33854;57.708;12.008;2023-02-17T03:27:08;93768.09;;;3.83;100.00
48077;BME280;33854;57.708;12.008;2023-02-17T03:29:34;93775.00;;;3.82;100.00
48077;BME280;33854;57.708;12.008;2023-02-17T03:31:59;93770.66;;;3.83;100.00
48077;BME280;33854;57.708;12.008;2023-02-17T03:34:25;93633.50;;;3.87;100.00
48077;BME280;33854;57.708;12.008;2023-02-17T03:36:50;93607.72;;;3.87;100.00
48077;BME280;33854;57.708;12.008;2023-02-17T03:39:16;93607.50;;;3.89;100.00
48077;BME280;33854;57.708;12.008;2023-02-17T03:41:41;93608.69;;;3.86;100.00
48077;BME280;33854;57.708;12.008;2023-02-17T03:44:07;93602.34;;;3.89;100.00
48077;BME280;33854;57.708;12.008;2023-02-17T03:46:32;93603.34;;;3.88;100.00
48077;BME280;33854;57.708;12.008;2023-02-17T03:48:58;93592.63;;;3.91;100.00
48077;BME280;33854;57.708;12.008;2023-02-17T03:51:24;93591.06;;;3.90;100.00
48077;BME280;33854;57.708;12.008;2023-02-17T03:53:50;93580.13;;;3.88;100.00
48077;BME280;33854;57.708;12.008;2023-02-17T03:56:16;93572.22;;;3.89;100.00
48077;BME280;33854;57.708;12.008;2023-02-17T03:58:42;93560.50;;;3.93;100.00
48077;BME280;33854;57.708;12.008;2023-02-17T04:01:09;93540.66;;;3.94;100.00
48077;BME280;33854;57.708;12.008;2023-02-17T04:03:35;93526.00;;;3.94;100.00
48077;BME280;33854;57.708;12.008;2023-02-17T04:06:01;93529.19;;;3.90;100.00
48077;BME280;33854;57.708;12.008;2023-02-17T04:08:27;93535.91;;;3.91;100.00
48077;BME280;33854;57.708;12.008;2023-02-17T04:10:54;93538.50;;;3.91;100.00
48077;BME280;33854;57.708;12.008;2023-02-17T04:13:21;93538.50;;;3.91;100.00
48077;BME280;33854;57.708;12.008;2023-02-17T04:15:47;93535.75;;;3.86;100.00
48077;BME280;33854;57.708;12.008;2023-02-17T04:18:13;93517.53;;;3.81;100.00
48077;BME280;33854;57.708;12.008;2023-02-17T04:20:39;93525.81;;;3.89;100.00
48077;BME280;33854;57.708;12.008;2023-02-17T04:23:04;93517.31;;;3.89;100.00
48077;BME280;33854;57.708;12.008;2023-02-17T04:25:33;93511.56;;;3.87;100.00
48077;BME280;33854;57.708;12.008;2023-02-17T04:27:58;93509.00;;;3.87;100.00
48077;BME280;33854;57.708;12.008;2023-02-17T04:30:23;93507.22;;;3.87;100.00
48077;BME280;33854;57.708;12.008;2023-02-17T04:32:49;93491.53;;;3.89;100.00
48077;BME280;33854;57.708;12.008;2023-02-17T04:35:14;93476.88;;;3.89;100.00
48077;BME280;33854;57.708;12.008;2023-02-17T04:37:40;93471.50;;;3.91;100.00
48077;BME280;33854;57.708;12.008;2023-02-17T04:40:06;93453.44;;;3.91;100.00
48077;BME280;33854;57.708;12.008;2023-02-17T04:42:35;93414.78;;;3.91;100.00
48077;BME280;33854;57.708;12.008;2023-02-17T04:45:00;93400.34;;;3.90;100.00
48077;BME280;33854;57.708;12.008;2023-02-17T04:47:26;93410.25;;;3.93;100.00
48077;BME280;33854;57.708;12.008;2023-02-17T04:49:51;93402.28;;;3.94;100.00
48077;BME280;33854;57.708;12.008;2023-02-17T04:52:16;93391.97;;;3.94;100.00
48077;BME280;33854;57.708;12.008;2023-02-17T04:54:42;93378.69;;;3.97;100.00
48077;BME280;33854;57.708;12.008;2023-02-17T04:57:07;93382.63;;;4.00;100.00
48077;BME280;33854;57.708;12.008;2023-02-17T04:59:33;93371.31;;;4.01;100.00
48077;BME280;33854;57.708;12.008;2023-02-17T05:01:58;93357.41;;;4.02;100.00
48077;BME280;33854;57.708;12.008;2023-02-17T05:04:23;93350.28;;;4.04;100.00
48077;BME280;33854;57.708;12.008;2023-02-17T05:06:49;93316.78;;;4.04;100.00
48077;BME280;33854;57.708;12.008;2023-02-17T05:09:14;93298.75;;;4.04;100.00
48077;BME280;33854;57.708;12.008;2023-02-17T05:11:40;93288.00;;;4.07;100.00
48077;BME280;33854;57.708;12.008;2023-02-17T05:14:05;93288.00;;;4.07;100.00
48077;BME280;33854;57.708;12.008;2023-02-17T05:16:31;93281.63;;;4.10;100.00
48077;BME280;33854;57.708;12.008;2023-02-17T05:18:56;93291.81;;;4.05;100.00
48077;BME280;33854;57.708;12.008;2023-02-17T05:21:21;93299.47;;;4.11;100.00
48077;BME280;33854;57.708;12.008;2023-02-17T05:23:47;93287.94;;;4.14;100.00
48077;BME280;33854;57.708;12.008;2023-02-17T05:26:12;93277.63;;;4.14;100.00
48077;BME280;33854;57.708;12.008;2023-02-17T05:28:38;93304.19;;;4.14;100.00
48077;BME280;33854;57.708;12.008;2023-02-17T05:31:04;93283.00;;;4.12;100.00
48077;BME280;33854;57.708;12.008;2023-02-17T05:33:29;93290.72;;;4.12;100.00
48077;BME280;33854;57.708;12.008;2023-02-17T05:35:55;93287.94;;;4.14;100.00
48077;BME280;33854;57.708;12.008;2023-02-17T05:38:21;93301.41;;;4.16;100.00
48077;BME280;33854;57.708;12.008;2023-02-17T05:40:46;93289.53;;;4.15;100.00
48077;BME280;33854;57.708;12.008;2023-02-17T05:43:11;93274.63;;;4.17;100.00
48077;BME280;33854;57.708;12.008;2023-02-17T05:45:37;93212.53;;;4.18;100.00
48077;BME280;33854;57.708;12.008;2023-02-17T05:48:02;93214.91;;;4.20;100.00
48077;BME280;33854;57.708;12.008;2023-02-17T05:50:28;93194.50;;;4.18;100.00
48077;BME280;33854;57.708;12.008;2023-02-17T05:52:53;93192.72;;;4.19;100.00
48077;BME280;33854;57.708;12.008;2023-02-17T05:55:19;93185.75;;;4.19;100.00
48077;BME280;33854;57.708;12.008;2023-02-17T05:57:44;93166.69;;;4.20;100.00
48077;BME280;33854;57.708;12.008;2023-02-17T06:00:10;93141.69;;;4.02;100.00
48077;BME280;33854;57.708;12.008;2023-02-17T06:02:36;93158.97;;;4.20;100.00
48077;BME280;33854;57.708;12.008;2023-02-17T06:05:01;93144.28;;;4.21;100.00
48077;BME280;33854;57.708;12.008;2023-02-17T06:07:27;93156.63;;;4.19;100.00
48077;BME280;33854;57.708;12.008;2023-02-17T06:09:52;93164.13;;;4.20;100.00
48077;BME280;33854;57.708;12.008;2023-02-17T06:12:18;93154.09;;;4.12;100.00
48077;BME280;33854;57.708;12.008;2023-02-17T06:14:43;93176.44;;;4.18;100.00
48077;BME280;33854;57.708;12.008;2023-02-17T06:17:09;93175.44;;;4.19;100.00
48077;BME280;33854;57.708;12.008;2023-02-17T06:19:34;93185.75;;;4.19;100.00
48077;BME280;33854;57.708;12.008;2023-02-17T06:22:00;93180.38;;;4.21;100.00
48077;BME280;33854;57.708;12.008;2023-02-17T06:24:25;93189.13;;;4.20;100.00
48077;BME280;33854;57.708;12.008;2023-02-17T06:26:51;93193.47;;;4.19;100.00
48077;BME280;33854;57.708;12.008;2023-02-17T06:29:16;93195.84;;;4.21;100.00
48077;BME280;33854;57.708;12.008;2023-02-17T06:31:41;93210.34;;;4.22;100.00
48077;BME280;33854;57.708;12.008;2023-02-17T06:34:07;93220.06;;;4.20;100.00
48077;BME280;33854;57.708;12.008;2023-02-17T06:36:32;93217.28;;;4.21;100.00
48077;BME280;33854;57.708;12.008;2023-02-17T06:38:58;93226.00;;;4.20;100.00
48077;BME280;33854;57.708;12.008;2023-02-17T06:41:23;93234.31;;;4.22;100.00
48077;BME280;33854;57.708;12.008;2023-02-17T06:43:49;93235.09;;;4.23;100.00
48077;BME280;33854;57.708;12.008;2023-02-17T06:46:14;93235.09;;;4.23;100.00
48077;BME280;33854;57.708;12.008;2023-02-17T06:48:39;93242.63;;;4.24;100.00
48077;BME280;33854;57.708;12.008;2023-02-17T06:51:05;93228.16;;;4.23;100.00
48077;BME280;33854;57.708;12.008;2023-02-17T06:53:30;93230.50;;;4.25;100.00
48077;BME280;33854;57.708;12.008;2023-02-17T06:55:56;93225.34;;;4.25;100.00
48077;BME280;33854;57.708;12.008;2023-02-17T06:58:21;93217.41;;;4.26;100.00
48077;BME280;33854;57.708;12.008;2023-02-17T07:00:47;93217.41;;;4.26;100.00
48077;BME280;33854;57.708;12.008;2023-02-17T07:03:12;93202.22;;;4.18;100.00
48077;BME280;33854;57.708;12.008;2023-02-17T07:05:37;93234.25;;;4.29;100.00
48077;BME280;33854;57.708;12.008;2023-02-17T07:08:04;93226.31;;;4.30;100.00
48077;BME280;33854;57.708;12.008;2023-02-17T07:10:30;93232.84;;;4.33;100.00
48077;BME280;33854;57.708;12.008;2023-02-17T07:12:56;93235.41;;;4.33;100.00
48077;BME280;33854;57.708;12.008;2023-02-17T07:15:21;93229.22;;;4.34;100.00
48077;BME280;33854;57.708;12.008;2023-02-17T07:17:47;93237.06;;;4.27;100.00
48077;BME280;33854;57.708;12.008;2023-02-17T07:20:12;93242.72;;;4.36;100.00
48077;BME280;33854;57.708;12.008;2023-02-17T07:22:38;93260.53;;;4.37;100.00
48077;BME280;33854;57.708;12.008;2023-02-17T07:25:04;93267.28;;;4.38;100.00
48077;BME280;33854;57.708;12.008;2023-02-17T07:27:30;93328.97;;;4.40;100.00
48077;BME280;33854;57.708;12.008;2023-02-17T07:29:56;93336.50;;;4.41;100.00
48077;BME280;33854;57.708;12.008;2023-02-17T07:32:22;93349.41;;;4.41;100.00
48077;BME280;33854;57.708;12.008;2023-02-17T07:34:47;93367.03;;;4.44;100.00
48077;BME280;33854;57.708;12.008;2023-02-17T07:37:13;93360.28;;;4.43;100.00
48077;BME280;33854;57.708;12.008;2023-02-17T07:39:38;93337.63;;;4.45;100.00
48077;BME280;33854;57.708;12.008;2023-02-17T07:42:04;93344.97;;;4.48;100.00
48077;BME280;33854;57.708;12.008;2023-02-17T07:44:30;93369.75;;;4.49;100.00
48077;BME280;33854;57.708;12.008;2023-02-17T07:46:56;93363.59;;;4.50;100.00
48077;BME280;33854;57.708;12.008;2023-02-17T07:49:22;93378.88;;;4.52;100.00
48077;BME280;33854;57.708;12.008;2023-02-17T07:51:47;93379.44;;;4.54;100.00
48077;BME280;33854;57.708;12.008;2023-02-17T07:54:13;93398.44;;;4.59;100.00
48077;BME280;33854;57.708;12.008;2023-02-17T07:56:38;93382.94;;;4.59;100.00
48077;BME280;33854;57.708;12.008;2023-02-17T07:59:10;93392.50;;;4.59;100.00
48077;BME280;33854;57.708;12.008;2023-02-17T08:01:36;93393.13;;;4.54;100.00
48077;BME280;33854;57.708;12.008;2023-02-17T08:04:01;93394.28;;;4.58;100.00
48077;BME280;33854;57.708;12.008;2023-02-17T08:06:27;93398.00;;;4.63;100.00
48077;BME280;33854;57.708;12.008;2023-02-17T08:08:53;93363.75;;;4.55;100.00
48077;BME280;33854;57.708;12.008;2023-02-17T08:11:37;93373.16;;;4.68;100.00
48077;BME280;33854;57.708;12.008;2023-02-17T08:14:24;93385.44;;;4.73;100.00
48077;BME280;33854;57.708;12.008;2023-02-17T08:16:49;93388.59;;;4.75;100.00
48077;BME280;33854;57.708;12.008;2023-02-17T08:19:15;93385.00;;;4.76;100.00
48077;BME280;33854;57.708;12.008;2023-02-17T08:21:40;93395.69;;;4.79;100.00
48077;BME280;33854;57.708;12.008;2023-02-17T08:24:06;93398.44;;;4.84;100.00
48077;BME280;33854;57.708;12.008;2023-02-17T08:26:32;93386.09;;;4.86;100.00
48077;BME280;33854;57.708;12.008;2023-02-17T08:28:57;93381.91;;;4.85;100.00
48077;BME280;33854;57.708;12.008;2023-02-17T08:31:30;93424.16;;;4.91;100.00
48077;BME280;33854;57.708;12.008;2023-02-17T08:33:56;93421.16;;;4.94;100.00
48077;BME280;33854;57.708;12.008;2023-02-17T08:36:23;93396.13;;;4.94;100.00
48077;BME280;33854;57.708;12.008;2023-02-17T08:38:50;93393.13;;;4.97;100.00
48077;BME280;33854;57.708;12.008;2023-02-17T08:43:50;93383.09;;;5.07;100.00
48077;BME280;33854;57.708;12.008;2023-02-17T08:46:16;93381.66;;;5.11;100.00
48077;BME280;33854;57.708;12.008;2023-02-17T08:48:42;93379.06;;;5.11;100.00
48077;BME280;33854;57.708;12.008;2023-02-17T08:51:11;93366.66;;;5.20;100.00
48077;BME280;33854;57.708;12.008;2023-02-17T08:53:37;93371.41;;;5.23;100.00
48077;BME280;33854;57.708;12.008;2023-02-17T08:56:03;93362.22;;;5.27;100.00
48077;BME280;33854;57.708;12.008;2023-02-17T08:58:28;93358.97;;;5.32;100.00
48077;BME280;33854;57.708;12.008;2023-02-17T09:00:54;93367.53;;;5.32;100.00
48077;BME280;33854;57.708;12.008;2023-02-17T09:03:19;93359.13;;;5.37;100.00
48077;BME280;33854;57.708;12.008;2023-02-17T09:05:44;93345.75;;;5.40;100.00
48077;BME280;33854;57.708;12.008;2023-02-17T09:08:10;93339.97;;;5.44;100.00
48077;BME280;33854;57.708;12.008;2023-02-17T09:10:36;93321.44;;;5.47;100.00
48077;BME280;33854;57.708;12.008;2023-02-17T09:13:02;93323.78;;;5.49;100.00
48077;BME280;33854;57.708;12.008;2023-02-17T09:15:28;93305.22;;;5.40;100.00
48077;BME280;33854;57.708;12.008;2023-02-17T09:17:53;93307.06;;;5.51;100.00
48077;BME280;33854;57.708;12.008;2023-02-17T09:20:19;93297.09;;;5.55;100.00
48077;BME280;33854;57.708;12.008;2023-02-17T09:22:44;93283.97;;;5.56;100.00
48077;BME280;33854;57.708;12.008;2023-02-17T09:25:10;93264.66;;;5.59;100.00
48077;BME280;33854;57.708;12.008;2023-02-17T09:27:35;93268.00;;;5.59;100.00
48077;BME280;33854;57.708;12.008;2023-02-17T09:30:00;93251.84;;;5.64;100.00
48077;BME280;33854;57.708;12.008;2023-02-17T09:32:26;93255.78;;;5.66;100.00
48077;BME280;33854;57.708;12.008;2023-02-17T09:34:51;93247.03;;;5.67;100.00
48077;BME280;33854;57.708;12.008;2023-02-17T09:37:18;93248.03;;;5.66;100.00
48077;BME280;33854;57.708;12.008;2023-02-17T09:39:44;93233.06;;;5.68;100.00
48077;BME280;33854;57.708;12.008;2023-02-17T09:42:22;93219.69;;;5.71;100.00
48077;BME280;33854;57.708;12.008;2023-02-17T09:44:51;93201.41;;;5.73;100.00
48077;BME280;33854;57.708;12.008;2023-02-17T09:47:23;93181.06;;;5.77;100.00
48077;BME280;33854;57.708;12.008;2023-02-17T09:50:00;93167.72;;;5.80;100.00
48077;BME280;33854;57.708;12.008;2023-02-17T09:52:38;93153.66;;;5.75;100.00
48077;BME280;33854;57.708;12.008;2023-02-17T09:55:12;93143.41;;;5.81;100.00
48077;BME280;33854;57.708;12.008;2023-02-17T09:57:50;93154.09;;;5.84;100.00
48077;BME280;33854;57.708;12.008;2023-02-17T10:00:54;93147.28;;;5.90;100.00
48077;BME280;33854;57.708;12.008;2023-02-17T10:03:34;93149.50;;;5.86;100.00
48077;BME280;33854;57.708;12.008;2023-02-17T10:15:00;93121.88;;;5.87;100.00
48077;BME280;33854;57.708;12.008;2023-02-17T10:17:34;93120.50;;;5.84;100.00
48077;BME280;33854;57.708;12.008;2023-02-17T10:22:31;93113.75;;;5.83;100.00
48077;BME280;33854;57.708;12.008;2023-02-17T10:24:58;93108.00;;;5.81;100.00
48077;BME280;33854;57.708;12.008;2023-02-17T10:35:50;93061.50;;;5.93;100.00
48077;BME280;33854;57.708;12.008;2023-02-17T10:41:13;93030.13;;;6.01;100.00
48077;BME280;33854;57.708;12.008;2023-02-17T10:43:41;93008.88;;;5.99;100.00
48077;BME280;33854;57.708;12.008;2023-02-17T10:46:08;93012.09;;;6.06;100.00
48077;BME280;33854;57.708;12.008;2023-02-17T10:48:54;92996.03;;;6.04;100.00
48077;BME280;33854;57.708;12.008;2023-02-17T10:51:29;92978.44;;;5.89;100.00
48077;BME280;33854;57.708;12.008;2023-02-17T10:54:20;92996.41;;;5.96;100.00
48077;BME280;33854;57.708;12.008;2023-02-17T10:56:50;92989.22;;;5.98;100.00
48077;BME280;33854;57.708;12.008;2023-02-17T11:01:50;92979.06;;;6.08;100.00
48077;BME280;33854;57.708;12.008;2023-02-17T11:04:15;92948.66;;;6.15;100.00
48077;BME280;33854;57.708;12.008;2023-02-17T11:06:49;92919.59;;;6.08;100.00
48077;BME280;33854;57.708;12.008;2023-02-17T11:09:19;92909.53;;;6.11;100.00
48077;BME280;33854;57.708;12.008;2023-02-17T11:12:15;92904.09;;;6.08;100.00
48077;BME280;33854;57.708;12.008;2023-02-17T11:14:46;92880.63;;;5.98;100.00
48077;BME280;33854;57.708;12.008;2023-02-17T11:17:27;92895.66;;;6.01;100.00
48077;BME280;33854;57.708;12.008;2023-02-17T11:20:01;92874.91;;;5.96;100.00
48077;BME280;33854;57.708;12.008;2023-02-17T11:22:37;92860.25;;;6.01;100.00
48077;BME280;33854;57.708;12.008;2023-02-17T11:25:25;92841.84;;;5.98;100.00
48077;BME280;33854;57.708;12.008;2023-02-17T11:27:53;92848.03;;;5.97;100.00
48077;BME280;33854;57.708;12.008;2023-02-17T11:30:20;92845.13;;;5.93;100.00
48077;BME280;33854;57.708;12.008;2023-02-17T11:32:46;92842.22;;;5.90;100.00
48077;BME280;33854;57.708;12.008;2023-02-17T11:35:44;92823.13;;;5.91;100.00
48077;BME280;33854;57.708;12.008;2023-02-17T11:40:50;92829.84;;;5.92;100.00
48077;BME280;33854;57.708;12.008;2023-02-17T11:43:16;92815.91;;;5.93;100.00
48077;BME280;33854;57.708;12.008;2023-02-17T11:45:52;92791.06;;;5.92;100.00
48077;BME280;33854;57.708;12.008;2023-02-17T11:51:22;92756.13;;;5.89;100.00
48077;BME280;33854;57.708;12.008;2023-02-17T11:56:37;92749.69;;;5.92;100.00
48077;BME280;33854;57.708;12.008;2023-02-17T12:04:59;92741.53;;;5.83;100.00
48077;BME280;33854;57.708;12.008;2023-02-17T12:10:46;92740.28;;;5.86;100.00
48077;BME280;33854;57.708;12.008;2023-02-17T12:13:41;92726.63;;;5.85;100.00
48077;BME280;33854;57.708;12.008;2023-02-17T12:22:18;92690.63;;;5.84;100.00
48077;BME280;33854;57.708;12.008;2023-02-17T12:36:02;92606.47;;;5.88;100.00
48077;BME280;33854;57.708;12.008;2023-02-17T12:38:30;92616.38;;;5.96;100.00
48077;BME280;33854;57.708;12.008;2023-02-17T12:43:40;92607.69;;;6.02;100.00
48077;BME280;33854;57.708;12.008;2023-02-17T12:46:11;92590.16;;;6.09;100.00
48077;BME280;33854;57.708;12.008;2023-02-17T12:49:09;92557.94;;;6.16;100.00
48077;BME280;33854;57.708;12.008;2023-02-17T12:52:07;92541.13;;;6.14;100.00
48077;BME280;33854;57.708;12.008;2023-02-17T12:54:51;92523.19;;;6.07;100.00
48077;BME280;33854;57.708;12.008;2023-02-17T12:57:43;92607.88;;;6.17;100.00
48077;BME280;33854;57.708;12.008;2023-02-17T13:00:23;92579.13;;;6.13;100.00
48077;BME280;33854;57.708;12.008;2023-02-17T13:02:56;92545.59;;;6.23;100.00
48077;BME280;33854;57.708;12.008;2023-02-17T13:05:26;92498.69;;;6.37;100.00
48077;BME280;33854;57.708;12.008;2023-02-17T13:10:31;92413.50;;;6.62;100.00
48077;BME280;33854;57.708;12.008;2023-02-17T13:13:12;92405.75;;;6.62;100.00
48077;BME280;33854;57.708;12.008;2023-02-17T13:15:43;92349.66;;;6.72;100.00
48077;BME280;33854;57.708;12.008;2023-02-17T13:28:48;92245.94;;;6.84;100.00
48077;BME280;33854;57.708;12.008;2023-02-17T13:31:20;92236.09;;;6.86;100.00
48077;BME280;33854;57.708;12.008;2023-02-17T13:33:57;92215.44;;;6.96;100.00
48077;BME280;33854;57.708;12.008;2023-02-17T13:41:54;92174.75;;;6.86;100.00
48077;BME280;33854;57.708;12.008;2023-02-17T13:44:25;92199.06;;;6.80;100.00
48077;BME280;33854;57.708;12.008;2023-02-17T13:46:52;92206.06;;;6.80;100.00
48077;BME280;33854;57.708;12.008;2023-02-17T13:49:23;92198.03;;;6.81;100.00
48077;BME280;33854;57.708;12.008;2023-02-17T13:51:49;92183.53;;;6.80;100.00
48077;BME280;33854;57.708;12.008;2023-02-17T13:54:19;92165.41;;;6.80;100.00
48077;BME280;33854;57.708;12.008;2023-02-17T13:56:52;92190.00;;;6.78;100.00
48077;BME280;33854;57.708;12.008;2023-02-17T13:59:24;92216.13;;;6.71;100.00
48077;BME280;33854;57.708;12.008;2023-02-17T14:01:50;92210.59;;;6.48;100.00
48077;BME280;33854;57.708;12.008;2023-02-17T14:04:25;92277.09;;;6.57;100.00
48077;BME280;33854;57.708;12.008;2023-02-17T14:06:52;92281.44;;;6.47;100.00
48077;BME280;33854;57.708;12.008;2023-02-17T14:09:29;92295.69;;;6.49;100.00
48077;BME280;33854;57.708;12.008;2023-02-17T14:12:00;92306.59;;;6.51;100.00
48077;BME280;33854;57.708;12.008;2023-02-17T14:14:32;92311.44;;;6.43;100.00
48077;BME280;33854;57.708;12.008;2023-02-17T14:17:01;92328.78;;;6.42;100.00
48077;BME280;33854;57.708;12.008;2023-02-17T14:19:27;92347.66;;;6.43;100.00
48077;BME280;33854;57.708;12.008;2023-02-17T14:22:02;92358.50;;;6.40;100.00
48077;BME280;33854;57.708;12.008;2023-02-17T14:24:34;92363.91;;;6.38;100.00
48077;BME280;33854;57.708;12.008;2023-02-17T14:27:03;92372.50;;;6.44;100.00
48077;BME280;33854;57.708;12.008;2023-02-17T14:32:24;92320.78;;;6.49;100.00
48077;BME280;33854;57.708;12.008;2023-02-17T14:34:49;92283.00;;;6.43;100.00
48077;BME280;33854;57.708;12.008;2023-02-17T14:37:23;92242.41;;;6.48;100.00
48077;BME280;33854;57.708;12.008;2023-02-17T14:39:49;92164.78;;;6.48;100.00
48077;BME280;33854;57.708;12.008;2023-02-17T14:42:14;92108.13;;;6.42;100.00
48077;BME280;33854;57.708;12.008;2023-02-17T14:44:40;92076.28;;;6.36;100.00
48077;BME280;33854;57.708;12.008;2023-02-17T14:47:06;92042.38;;;6.27;100.00
48077;BME280;33854;57.708;12.008;2023-02-17T14:49:32;91981.34;;;6.31;100.00
48077;BME280;33854;57.708;12.008;2023-02-17T14:51:57;91953.16;;;6.30;100.00
48077;BME280;33854;57.708;12.008;2023-02-17T14:54:23;91850.72;;;6.29;100.00
48077;BME280;33854;57.708;12.008;2023-02-17T14:57:04;91801.63;;;6.24;100.00
48077;BME280;33854;57.708;12.008;2023-02-17T14:59:30;91682.94;;;6.12;100.00
48077;BME280;33854;57.708;12.008;2023-02-17T15:01:56;91588.84;;;6.13;100.00
48077;BME280;33854;57.708;12.008;2023-02-17T15:04:21;91480.03;;;6.10;100.00
48077;BME280;33854;57.708;12.008;2023-02-17T15:06:49;91511.06;;;6.10;100.00
48077;BME280;33854;57.708;12.008;2023-02-17T15:09:18;91543.66;;;6.01;100.00